createdAt,value
2017-05-23T00:00:30.128Z,1008.93
2017-05-23T00:01:30.110Z,1008.92
2017-05-23T00:02:30.104Z,1008.95
2017-05-23T00:03:30.078Z,1008.94
2017-05-23T00:04:30.073Z,1008.91
2017-05-23T00:05:30.053Z,1008.93
2017-05-23T00:06:30.041Z,1008.91
2017-05-23T00:07:30.024Z,1008.9
2017-05-23T00:08:30.014Z,1008.95
2017-05-23T00:09:29.996Z,1008.94
2017-05-23T00:10:29.982Z,1008.95
2017-05-23T00:11:29.971Z,1008.94
2017-05-23T00:12:29.952Z,1008.94
2017-05-23T00:13:29.940Z,1008.94
2017-05-23T00:14:29.931Z,1008.88
2017-05-23T00:15:29.913Z,1008.94
2017-05-23T00:16:29.900Z,1008.87
2017-05-23T00:17:29.881Z,1008.9
2017-05-23T00:18:29.867Z,1008.85
2017-05-23T00:19:29.852Z,1008.88
2017-05-23T00:20:29.844Z,1008.87
2017-05-23T00:21:29.829Z,1008.84
2017-05-23T00:22:29.814Z,1008.87
2017-05-23T00:23:29.799Z,1008.87
2017-05-23T00:24:29.781Z,1008.85
2017-05-23T00:25:29.772Z,1008.82
2017-05-23T00:26:29.751Z,1008.83
2017-05-23T00:27:29.739Z,1008.84
2017-05-23T00:28:29.721Z,1008.86
2017-05-23T00:29:29.713Z,1008.86
2017-05-23T00:30:29.697Z,1008.84
2017-05-23T00:31:29.680Z,1008.82
2017-05-23T00:32:29.670Z,1008.81
2017-05-23T00:33:29.651Z,1008.8
2017-05-23T00:34:29.641Z,1008.82
2017-05-23T00:35:29.623Z,1008.79
2017-05-23T00:36:29.614Z,1008.78
2017-05-23T00:37:29.601Z,1008.75
2017-05-23T00:38:29.583Z,1008.78
2017-05-23T00:39:29.574Z,1008.74
2017-05-23T00:40:29.630Z,1008.74
2017-05-23T00:41:29.536Z,1008.74
2017-05-23T00:42:29.621Z,1008.75
2017-05-23T00:43:29.510Z,1008.73
2017-05-23T00:44:29.494Z,1008.71
2017-05-23T00:45:29.483Z,1008.7
2017-05-23T00:46:29.512Z,1008.65
2017-05-23T00:47:29.452Z,1008.65
2017-05-23T00:48:29.491Z,1008.63
2017-05-23T00:49:29.421Z,1008.63
2017-05-23T00:50:29.411Z,1008.66
2017-05-23T00:51:29.393Z,1008.64
2017-05-23T00:52:29.432Z,1008.65
2017-05-23T00:53:29.363Z,1008.65
2017-05-23T00:54:29.350Z,1008.66
2017-05-23T00:55:29.342Z,1008.64
2017-05-23T00:56:29.324Z,1008.65
2017-05-23T00:57:29.304Z,1008.63
2017-05-23T00:58:29.292Z,1008.67
2017-05-23T00:59:29.281Z,1008.68
2017-05-23T01:00:29.262Z,1008.69
2017-05-23T01:01:29.253Z,1008.68
2017-05-23T01:02:29.232Z,1008.69
2017-05-23T01:03:29.226Z,1008.67
2017-05-23T01:04:29.202Z,1008.7
2017-05-23T01:05:29.195Z,1008.72
2017-05-23T01:06:29.173Z,1008.73
2017-05-23T01:07:29.157Z,1008.7
2017-05-23T01:08:29.146Z,1008.73
2017-05-23T01:09:29.131Z,1008.7
2017-05-23T01:10:29.115Z,1008.69
2017-05-23T01:11:29.104Z,1008.68
2017-05-23T01:12:29.088Z,1008.65
2017-05-23T01:13:29.070Z,1008.68
2017-05-23T01:14:29.061Z,1008.65
2017-05-23T01:15:29.042Z,1008.66
2017-05-23T01:16:29.029Z,1008.68
2017-05-23T01:17:29.017Z,1008.67
2017-05-23T01:18:29.004Z,1008.67
2017-05-23T01:19:28.994Z,1008.72
2017-05-23T01:20:28.975Z,1008.69
2017-05-23T01:21:28.953Z,1008.72
2017-05-23T01:22:28.941Z,1008.69
2017-05-23T01:23:28.925Z,1008.68
2017-05-23T01:24:28.911Z,1008.7
2017-05-23T01:25:28.898Z,1008.71
2017-05-23T01:26:28.884Z,1008.71
2017-05-23T01:27:28.866Z,1008.67
2017-05-23T01:28:28.853Z,1008.68
2017-05-23T01:29:28.845Z,1008.66
2017-05-23T01:30:28.822Z,1008.68
2017-05-23T01:31:28.823Z,1008.67
2017-05-23T01:32:28.793Z,1008.69
2017-05-23T01:33:28.779Z,1008.67
2017-05-23T01:34:28.762Z,1008.68
2017-05-23T01:35:28.749Z,1008.67
2017-05-23T01:36:28.736Z,1008.67
2017-05-23T01:37:28.722Z,1008.65
2017-05-23T01:38:28.702Z,1008.65
2017-05-23T01:39:28.693Z,1008.64
2017-05-23T01:40:28.675Z,1008.63
2017-05-23T01:41:28.658Z,1008.65
2017-05-23T01:42:28.643Z,1008.63
2017-05-23T01:43:28.633Z,1008.66
2017-05-23T01:44:28.613Z,1008.65
2017-05-23T01:45:28.609Z,1008.63
2017-05-23T01:46:28.582Z,1008.61
2017-05-23T01:47:28.574Z,1008.59
2017-05-23T01:48:28.552Z,1008.61
2017-05-23T01:49:28.544Z,1008.59
2017-05-23T01:50:28.526Z,1008.57
2017-05-23T01:51:28.512Z,1008.56
2017-05-23T01:52:28.493Z,1008.55
2017-05-23T01:53:28.480Z,1008.55
2017-05-23T01:54:28.465Z,1008.54
2017-05-23T01:55:28.453Z,1008.53
2017-05-23T01:56:28.443Z,1008.58
2017-05-23T01:57:28.424Z,1008.6
2017-05-23T01:58:28.404Z,1008.61
2017-05-23T01:59:28.392Z,1008.59
2017-05-23T02:00:28.381Z,1008.6
2017-05-23T02:01:28.364Z,1008.6
2017-05-23T02:02:28.343Z,1008.59
2017-05-23T02:03:28.330Z,1008.61
2017-05-23T02:04:28.312Z,1008.61
2017-05-23T02:05:28.297Z,1008.59
2017-05-23T02:06:28.283Z,1008.67
2017-05-23T02:07:28.269Z,1008.61
2017-05-23T02:08:28.255Z,1008.6
2017-05-23T02:09:28.237Z,1008.59
2017-05-23T02:10:28.223Z,1008.6
2017-05-23T02:11:28.206Z,1008.57
2017-05-23T02:12:28.196Z,1008.6
2017-05-23T02:13:28.177Z,1008.58
2017-05-23T02:14:28.166Z,1008.57
2017-05-23T02:15:28.152Z,1008.6
2017-05-23T02:16:28.133Z,1008.58
2017-05-23T02:17:28.122Z,1008.6
2017-05-23T02:18:28.103Z,1008.61
2017-05-23T02:19:28.092Z,1008.61
2017-05-23T02:20:28.072Z,1008.62
2017-05-23T02:21:28.063Z,1008.63
2017-05-23T02:22:28.045Z,1008.62
2017-05-23T02:23:28.028Z,1008.63
2017-05-23T02:24:28.012Z,1008.65
2017-05-23T02:25:27.992Z,1008.65
2017-05-23T02:26:28.034Z,1008.62
2017-05-23T02:27:27.962Z,1008.61
2017-05-23T02:28:27.953Z,1008.65
2017-05-23T02:29:27.933Z,1008.61
2017-05-23T02:30:27.919Z,1008.64
2017-05-23T02:31:27.903Z,1008.62
2017-05-23T02:32:27.889Z,1008.62
2017-05-23T02:33:27.875Z,1008.64
2017-05-23T02:34:27.858Z,1008.64
2017-05-23T02:35:27.842Z,1008.62
2017-05-23T02:36:27.826Z,1008.64
2017-05-23T02:37:27.814Z,1008.62
2017-05-23T02:38:27.795Z,1008.64
2017-05-23T02:39:27.781Z,1008.67
2017-05-23T02:40:27.767Z,1008.64
2017-05-23T02:41:27.799Z,1008.65
2017-05-23T02:42:27.735Z,1008.61
2017-05-23T02:43:27.738Z,1008.67
2017-05-23T02:44:27.706Z,1008.62
2017-05-23T02:45:27.713Z,1008.65
2017-05-23T02:46:27.672Z,1008.68
2017-05-23T02:47:27.711Z,1008.68
2017-05-23T02:48:27.645Z,1008.71
2017-05-23T02:49:27.683Z,1008.67
2017-05-23T02:50:27.615Z,1008.69
2017-05-23T02:51:27.596Z,1008.67
2017-05-23T02:52:27.583Z,1008.67
2017-05-23T02:53:27.571Z,1008.68
2017-05-23T02:54:27.553Z,1008.68
2017-05-23T02:55:27.540Z,1008.65
2017-05-23T02:56:27.525Z,1008.64
2017-05-23T02:57:27.554Z,1008.59
2017-05-23T02:58:27.489Z,1008.63
2017-05-23T02:59:27.475Z,1008.61
2017-05-23T03:00:27.463Z,1008.61
2017-05-23T03:01:27.496Z,1008.58
2017-05-23T03:02:27.434Z,1008.58
2017-05-23T03:03:27.423Z,1008.6
2017-05-23T03:04:27.403Z,1008.6
2017-05-23T03:05:27.383Z,1008.58
2017-05-23T03:06:27.365Z,1008.55
2017-05-23T03:07:27.353Z,1008.54
2017-05-23T03:08:27.336Z,1008.53
2017-05-23T03:09:27.323Z,1008.5
2017-05-23T03:10:27.312Z,1008.46
2017-05-23T03:11:27.294Z,1008.44
2017-05-23T03:12:27.272Z,1008.45
2017-05-23T03:13:27.262Z,1008.45
2017-05-23T03:14:27.242Z,1008.41
2017-05-23T03:15:27.233Z,1008.41
2017-05-23T03:16:27.214Z,1008.46
2017-05-23T03:17:27.198Z,1008.45
2017-05-23T03:18:27.184Z,1008.47
2017-05-23T03:19:27.165Z,1008.46
2017-05-23T03:20:27.153Z,1008.45
2017-05-23T03:21:27.135Z,1008.45
2017-05-23T03:22:27.121Z,1008.43
2017-05-23T03:23:27.103Z,1008.42
2017-05-23T03:24:27.087Z,1008.39
2017-05-23T03:25:27.076Z,1008.43
2017-05-23T03:26:27.059Z,1008.39
2017-05-23T03:27:27.046Z,1008.38
2017-05-23T03:28:27.025Z,1008.37
2017-05-23T03:29:27.015Z,1008.35
2017-05-23T03:30:27.001Z,1008.37
2017-05-23T03:31:26.984Z,1008.33
2017-05-23T03:32:26.964Z,1008.32
2017-05-23T03:33:26.952Z,1008.31
2017-05-23T03:34:26.933Z,1008.34
2017-05-23T03:35:26.920Z,1008.33
2017-05-23T03:36:26.902Z,1008.38
2017-05-23T03:37:26.890Z,1008.35
2017-05-23T03:38:26.871Z,1008.31
2017-05-23T03:39:26.854Z,1008.37
2017-05-23T03:40:26.843Z,1008.31
2017-05-23T03:41:26.826Z,1008.33
2017-05-23T03:42:26.806Z,1008.36
2017-05-23T03:43:26.794Z,1008.34
2017-05-23T03:44:26.782Z,1008.3
2017-05-23T03:45:26.765Z,1008.29
2017-05-23T03:46:26.742Z,1008.33
2017-05-23T03:47:26.733Z,1008.33
2017-05-23T03:48:26.714Z,1008.32
2017-05-23T03:49:26.697Z,1008.32
2017-05-23T03:50:26.683Z,1008.33
2017-05-23T03:51:26.669Z,1008.32
2017-05-23T03:52:26.654Z,1008.33
2017-05-23T03:53:26.638Z,1008.27
2017-05-23T03:54:26.674Z,1008.3
2017-05-23T03:55:26.606Z,1008.3
2017-05-23T03:56:26.593Z,1008.3
2017-05-23T03:57:26.574Z,1008.34
2017-05-23T03:58:26.559Z,1008.32
2017-05-23T03:59:26.547Z,1008.32
2017-05-23T04:00:26.528Z,1008.31
2017-05-23T04:01:26.508Z,1008.33
2017-05-23T04:02:26.494Z,1008.31
2017-05-23T04:03:26.479Z,1008.33
2017-05-23T04:04:26.464Z,1008.32
2017-05-23T04:05:26.448Z,1008.32
2017-05-23T04:06:26.431Z,1008.33
2017-05-23T04:07:26.422Z,1008.31
2017-05-23T04:08:26.405Z,1008.35
2017-05-23T04:09:26.385Z,1008.36
2017-05-23T04:10:26.374Z,1008.35
2017-05-23T04:11:26.353Z,1008.37
2017-05-23T04:12:26.337Z,1008.36
2017-05-23T04:13:26.317Z,1008.36
2017-05-23T04:14:26.306Z,1008.36
2017-05-23T04:15:26.290Z,1008.39
2017-05-23T04:16:26.277Z,1008.36
2017-05-23T04:17:26.263Z,1008.38
2017-05-23T04:18:26.237Z,1008.37
2017-05-23T04:19:26.236Z,1008.38
2017-05-23T04:20:26.213Z,1008.35
2017-05-23T04:21:26.193Z,1008.37
2017-05-23T04:22:26.174Z,1008.32
2017-05-23T04:23:26.161Z,1008.37
2017-05-23T04:24:26.144Z,1008.33
2017-05-23T04:25:26.133Z,1008.33
2017-05-23T04:26:26.112Z,1008.34
2017-05-23T04:27:26.093Z,1008.36
2017-05-23T04:28:26.141Z,1008.34
2017-05-23T04:29:26.065Z,1008.35
2017-05-23T04:30:26.051Z,1008.37
2017-05-23T04:31:26.032Z,1008.36
2017-05-23T04:32:26.014Z,1008.4
2017-05-23T04:33:26.002Z,1008.37
2017-05-23T04:34:25.986Z,1008.38
2017-05-23T04:35:25.962Z,1008.4
2017-05-23T04:36:25.946Z,1008.42
2017-05-23T04:37:25.930Z,1008.38
2017-05-23T04:38:25.916Z,1008.38
2017-05-23T04:39:25.898Z,1008.4
2017-05-23T04:40:25.884Z,1008.44
2017-05-23T04:41:25.867Z,1008.42
2017-05-23T04:42:25.857Z,1008.44
2017-05-23T04:43:25.835Z,1008.45
2017-05-23T04:44:25.883Z,1008.46
2017-05-23T04:45:25.805Z,1008.48
2017-05-23T04:46:25.786Z,1008.47
2017-05-23T04:47:25.770Z,1008.44
2017-05-23T04:48:25.749Z,1008.5
2017-05-23T04:49:25.734Z,1008.5
2017-05-23T04:50:25.735Z,1008.53
2017-05-23T04:51:25.701Z,1008.51
2017-05-23T04:52:25.837Z,1008.51
2017-05-23T04:53:25.677Z,1008.51
2017-05-23T04:54:25.753Z,1008.53
2017-05-23T04:55:25.636Z,1008.49
2017-05-23T04:56:25.719Z,1008.54
2017-05-23T04:57:25.601Z,1008.54
2017-05-23T04:58:25.597Z,1008.51
2017-05-23T04:59:25.570Z,1008.5
2017-05-23T05:00:25.604Z,1008.48
2017-05-23T05:01:25.544Z,1008.52
2017-05-23T05:02:25.526Z,1008.49
2017-05-23T05:03:25.505Z,1008.51
2017-05-23T05:04:25.537Z,1008.5
2017-05-23T05:05:25.499Z,1008.54
2017-05-23T05:06:25.476Z,1008.52
2017-05-23T05:07:25.438Z,1008.55
2017-05-23T05:08:25.471Z,1008.58
2017-05-23T05:09:25.404Z,1008.57
2017-05-23T05:10:25.441Z,1008.57
2017-05-23T05:11:25.383Z,1008.55
2017-05-23T05:12:25.405Z,1008.58
2017-05-23T05:13:25.343Z,1008.55
2017-05-23T05:14:25.325Z,1008.58
2017-05-23T05:15:25.307Z,1008.59
2017-05-23T05:16:25.338Z,1008.62
2017-05-23T05:17:25.273Z,1008.61
2017-05-23T05:18:25.267Z,1008.62
2017-05-23T05:19:25.246Z,1008.64
2017-05-23T05:20:25.229Z,1008.62
2017-05-23T05:21:25.211Z,1008.68
2017-05-23T05:22:25.242Z,1008.63
2017-05-23T05:23:25.176Z,1008.69
2017-05-23T05:24:25.166Z,1008.71
2017-05-23T05:25:25.153Z,1008.69
2017-05-23T05:26:25.125Z,1008.72
2017-05-23T05:27:25.112Z,1008.72
2017-05-23T05:28:25.097Z,1008.68
2017-05-23T05:29:25.081Z,1008.66
2017-05-23T05:30:25.063Z,1008.68
2017-05-23T05:31:25.055Z,1008.68
2017-05-23T05:32:25.031Z,1008.7
2017-05-23T05:33:25.021Z,1008.68
2017-05-23T05:34:25.004Z,1008.66
2017-05-23T05:35:24.985Z,1008.67
2017-05-23T05:36:24.974Z,1008.64
2017-05-23T05:37:24.953Z,1008.65
2017-05-23T05:38:24.945Z,1008.63
2017-05-23T05:39:24.922Z,1008.62
2017-05-23T05:40:24.913Z,1008.62
2017-05-23T05:41:24.952Z,1008.65
2017-05-23T05:42:24.886Z,1008.68
2017-05-23T05:43:24.866Z,1008.71
2017-05-23T05:44:24.843Z,1008.7
2017-05-23T05:45:24.828Z,1008.72
2017-05-23T05:46:24.812Z,1008.64
2017-05-23T05:47:24.801Z,1008.65
2017-05-23T05:48:24.783Z,1008.61
2017-05-23T05:49:24.770Z,1008.6
2017-05-23T05:50:24.756Z,1008.59
2017-05-23T05:51:24.745Z,1008.61
2017-05-23T05:52:24.722Z,1008.64
2017-05-23T05:53:24.713Z,1008.65
2017-05-23T05:54:24.693Z,1008.64
2017-05-23T05:55:24.675Z,1008.67
2017-05-23T05:56:24.664Z,1008.68
2017-05-23T05:57:24.649Z,1008.68
2017-05-23T05:58:24.629Z,1008.73
2017-05-23T05:59:24.614Z,1008.73
2017-05-23T06:00:24.606Z,1008.7
2017-05-23T06:01:24.587Z,1008.71
2017-05-23T06:02:24.570Z,1008.73
2017-05-23T06:03:24.554Z,1008.73
2017-05-23T06:04:24.538Z,1008.75
2017-05-23T06:05:24.524Z,1008.74
2017-05-23T06:06:24.514Z,1008.74
2017-05-23T06:07:24.495Z,1008.73
2017-05-23T06:08:24.482Z,1008.75
2017-05-23T06:09:24.466Z,1008.75
2017-05-23T06:10:24.452Z,1008.75
2017-05-23T06:11:24.450Z,1008.73
2017-05-23T06:12:24.424Z,1008.77
2017-05-23T06:13:24.417Z,1008.77
2017-05-23T06:14:24.392Z,1008.74
2017-05-23T06:15:24.383Z,1008.74
2017-05-23T06:16:24.362Z,1008.74
2017-05-23T06:17:24.354Z,1008.74
2017-05-23T06:18:24.333Z,1008.72
2017-05-23T06:19:24.324Z,1008.74
2017-05-23T06:20:24.316Z,1008.73
2017-05-23T06:21:24.294Z,1008.74
2017-05-23T06:22:24.283Z,1008.7
2017-05-23T06:23:24.264Z,1008.74
2017-05-23T06:24:24.252Z,1008.74
2017-05-23T06:25:24.235Z,1008.72
2017-05-23T06:26:24.222Z,1008.69
2017-05-23T06:27:24.211Z,1008.73
2017-05-23T06:28:24.195Z,1008.72
2017-05-23T06:29:24.180Z,1008.77
2017-05-23T06:30:24.163Z,1008.77
2017-05-23T06:31:24.147Z,1008.71
2017-05-23T06:32:24.145Z,1008.71
2017-05-23T06:33:24.125Z,1008.72
2017-05-23T06:34:24.110Z,1008.76
2017-05-23T06:35:24.096Z,1008.76
2017-05-23T06:36:24.081Z,1008.78
2017-05-23T06:37:24.074Z,1008.8
2017-05-23T06:38:24.055Z,1008.8
2017-05-23T06:39:24.047Z,1008.82
2017-05-23T06:40:24.024Z,1008.84
2017-05-23T06:41:24.015Z,1008.81
2017-05-23T06:42:23.997Z,1008.89
2017-05-23T06:43:23.982Z,1008.85
2017-05-23T06:44:23.975Z,1008.84
2017-05-23T06:45:23.964Z,1008.84
2017-05-23T06:46:23.942Z,1008.87
2017-05-23T06:47:23.930Z,1008.88
2017-05-23T06:48:23.919Z,1008.9
2017-05-23T06:49:23.901Z,1008.82
2017-05-23T06:50:23.891Z,1008.88
2017-05-23T06:51:23.882Z,1008.88
2017-05-23T06:52:23.869Z,1008.91
2017-05-23T06:53:23.864Z,1008.88
2017-05-23T06:54:23.836Z,1008.87
2017-05-23T06:55:23.933Z,1008.87
2017-05-23T06:56:23.812Z,1008.9
2017-05-23T06:57:23.800Z,1008.91
2017-05-23T06:58:23.785Z,1008.95
2017-05-23T06:59:23.863Z,1008.94
2017-05-23T07:00:23.762Z,1008.99
2017-05-23T07:01:23.798Z,1008.97
2017-05-23T07:02:23.737Z,1008.96
2017-05-23T07:03:23.773Z,1008.96
2017-05-23T07:04:23.709Z,1008.96
2017-05-23T07:05:23.754Z,1008.96
2017-05-23T07:06:23.683Z,1008.91
2017-05-23T07:07:23.672Z,1008.98
2017-05-23T07:08:23.661Z,1008.95
2017-05-23T07:09:23.650Z,1008.97
2017-05-23T07:10:23.632Z,1008.94
2017-05-23T07:11:23.620Z,1008.97
2017-05-23T07:12:23.605Z,1009
2017-05-23T07:13:23.603Z,1009.04
2017-05-23T07:14:23.583Z,1009.02
2017-05-23T07:15:23.640Z,1009.05
2017-05-23T07:16:23.563Z,1009.02
2017-05-23T07:17:23.545Z,1008.99
2017-05-23T07:18:23.531Z,1008.99
2017-05-23T07:19:23.523Z,1008.97
2017-05-23T07:20:23.506Z,1008.99
2017-05-23T07:21:23.501Z,1008.96
2017-05-23T07:22:23.486Z,1009
2017-05-23T07:23:23.470Z,1009.01
2017-05-23T07:24:23.461Z,1009
2017-05-23T07:25:23.450Z,1009.05
2017-05-23T07:26:23.442Z,1009.07
2017-05-23T07:27:23.429Z,1009.1
2017-05-23T07:28:23.411Z,1009.12
2017-05-23T07:29:23.403Z,1009.14
2017-05-23T07:30:23.391Z,1009.15
2017-05-23T07:31:23.381Z,1009.14
2017-05-23T07:32:23.369Z,1009.15
2017-05-23T07:33:23.353Z,1009.13
2017-05-23T07:34:23.342Z,1009.19
2017-05-23T07:35:23.332Z,1009.18
2017-05-23T07:36:23.322Z,1009.18
2017-05-23T07:37:23.307Z,1009.2
2017-05-23T07:38:23.292Z,1009.22
2017-05-23T07:39:23.281Z,1009.18
2017-05-23T07:40:23.271Z,1009.17
2017-05-23T07:41:23.263Z,1009.12
2017-05-23T07:42:23.251Z,1009.11
2017-05-23T07:43:23.245Z,1009.07
2017-05-23T07:44:23.234Z,1009.03
2017-05-23T07:45:23.225Z,1009.06
2017-05-23T07:46:23.202Z,1009.12
2017-05-23T07:47:23.194Z,1009.09
2017-05-23T07:48:23.178Z,1009.11
2017-05-23T07:49:23.169Z,1009.11
2017-05-23T07:50:23.162Z,1009.15
2017-05-23T07:51:23.148Z,1009.13
2017-05-23T07:52:23.140Z,1009.1
2017-05-23T07:53:23.125Z,1009.16
2017-05-23T07:54:23.165Z,1009.12
2017-05-23T07:55:23.103Z,1009.17
2017-05-23T07:56:23.091Z,1009.11
2017-05-23T07:57:23.080Z,1009.16
2017-05-23T07:58:23.074Z,1009.16
2017-05-23T07:59:23.056Z,1009.16
2017-05-23T08:00:23.047Z,1009.16
2017-05-23T08:01:23.034Z,1009.17
2017-05-23T08:02:23.072Z,1009.22
2017-05-23T08:03:23.012Z,1009.17
2017-05-23T08:04:23.004Z,1009.16
2017-05-23T08:05:22.992Z,1009.22
2017-05-23T08:06:22.983Z,1009.23
2017-05-23T08:07:22.972Z,1009.26
2017-05-23T08:08:22.964Z,1009.25
2017-05-23T08:09:22.950Z,1009.26
2017-05-23T08:10:22.942Z,1009.22
2017-05-23T08:11:22.932Z,1009.21
2017-05-23T08:12:22.919Z,1009.16
2017-05-23T08:13:22.914Z,1009.15
2017-05-23T08:14:22.899Z,1009.06
2017-05-23T08:15:22.893Z,1009.05
2017-05-23T08:16:22.882Z,1009.06
2017-05-23T08:17:22.870Z,1009.08
2017-05-23T08:18:22.863Z,1009.1
2017-05-23T08:19:22.852Z,1009.16
2017-05-23T08:20:22.838Z,1009.12
2017-05-23T08:21:22.836Z,1009.13
2017-05-23T08:22:22.819Z,1009.11
2017-05-23T08:23:22.808Z,1009.16
2017-05-23T08:24:22.798Z,1009.21
2017-05-23T08:25:22.792Z,1009.21
2017-05-23T08:26:22.783Z,1009.25
2017-05-23T08:27:22.770Z,1009.3
2017-05-23T08:28:22.763Z,1009.38
2017-05-23T08:29:22.751Z,1009.43
2017-05-23T08:30:22.743Z,1009.33
2017-05-23T08:31:22.729Z,1009.28
2017-05-23T08:32:22.722Z,1009.44
2017-05-23T08:33:22.711Z,1009.53
2017-05-23T08:34:22.710Z,1009.53
2017-05-23T08:35:22.699Z,1009.44
2017-05-23T08:36:22.692Z,1009.46
2017-05-23T08:37:22.681Z,1009.45
2017-05-23T08:38:22.674Z,1009.4
2017-05-23T08:39:22.661Z,1009.32
2017-05-23T08:40:22.650Z,1009.41
2017-05-23T08:41:22.642Z,1009.39
2017-05-23T08:42:22.642Z,1009.39
2017-05-23T08:43:22.632Z,1009.35
2017-05-23T08:44:22.627Z,1009.37
2017-05-23T08:45:22.612Z,1009.4
2017-05-23T08:46:22.602Z,1009.43
2017-05-23T08:47:22.596Z,1009.4
2017-05-23T08:48:22.590Z,1009.42
2017-05-23T08:49:22.582Z,1009.44
2017-05-23T08:50:22.584Z,1009.47
2017-05-23T08:51:22.574Z,1009.47
2017-05-23T08:52:22.562Z,1009.48
2017-05-23T08:53:22.562Z,1009.48
2017-05-23T08:54:22.552Z,1009.47
2017-05-23T08:55:22.544Z,1009.44
2017-05-23T08:56:22.539Z,1009.41
2017-05-23T08:57:22.531Z,1009.45
2017-05-23T08:58:22.524Z,1009.52
2017-05-23T08:59:22.516Z,1009.56
2017-05-23T09:00:22.514Z,1009.56
2017-05-23T09:01:22.512Z,1009.49
2017-05-23T09:02:22.515Z,1009.48
2017-05-23T09:03:22.494Z,1009.46
2017-05-23T09:04:22.492Z,1009.52
2017-05-23T09:05:22.481Z,1009.49
2017-05-23T09:06:22.477Z,1009.56
2017-05-23T09:07:22.471Z,1009.53
2017-05-23T09:08:22.466Z,1009.53
2017-05-23T09:09:22.461Z,1009.53
2017-05-23T09:10:22.461Z,1009.58
2017-05-23T09:11:22.452Z,1009.59
2017-05-23T09:12:22.451Z,1009.51
2017-05-23T09:13:22.444Z,1009.52
2017-05-23T09:14:22.438Z,1009.56
2017-05-23T09:15:22.431Z,1009.65
2017-05-23T09:16:22.431Z,1009.6
2017-05-23T09:17:22.425Z,1009.64
2017-05-23T09:18:22.421Z,1009.59
2017-05-23T09:19:22.412Z,1009.6
2017-05-23T09:20:22.410Z,1009.65
2017-05-23T09:21:22.411Z,1009.66
2017-05-23T09:22:22.408Z,1009.7
2017-05-23T09:23:22.404Z,1009.75
2017-05-23T09:24:22.392Z,1009.8
2017-05-23T09:25:22.391Z,1009.78
2017-05-23T09:26:22.393Z,1009.81
2017-05-23T09:27:22.425Z,1009.78
2017-05-23T09:28:22.379Z,1009.8
2017-05-23T09:29:22.392Z,1009.64
2017-05-23T09:30:22.372Z,1009.68
2017-05-23T09:31:22.375Z,1009.73
2017-05-23T09:32:22.370Z,1009.74
2017-05-23T09:33:22.361Z,1009.68
2017-05-23T09:34:22.362Z,1009.67
2017-05-23T09:35:22.356Z,1009.71
2017-05-23T09:36:22.356Z,1009.68
2017-05-23T09:37:22.347Z,1009.67
2017-05-23T09:38:22.344Z,1009.59
2017-05-23T09:39:22.341Z,1009.64
2017-05-23T09:40:22.338Z,1009.68
2017-05-23T09:41:22.340Z,1009.67
2017-05-23T09:42:22.331Z,1009.71
2017-05-23T09:43:22.333Z,1009.76
2017-05-23T09:44:22.335Z,1009.77
2017-05-23T09:45:22.322Z,1009.74
2017-05-23T09:46:22.320Z,1009.72
2017-05-23T09:47:22.318Z,1009.77
2017-05-23T09:48:22.314Z,1009.63
2017-05-23T09:49:22.313Z,1009.69
2017-05-23T09:50:22.323Z,1009.7
2017-05-23T09:51:22.302Z,1009.72
2017-05-23T09:52:22.301Z,1009.81
2017-05-23T09:53:22.301Z,1009.77
2017-05-23T09:54:22.307Z,1009.73
2017-05-23T09:55:22.319Z,1009.73
2017-05-23T09:56:22.291Z,1009.72
2017-05-23T09:57:22.282Z,1009.71
2017-05-23T09:58:22.282Z,1009.71
2017-05-23T09:59:22.283Z,1009.67
2017-05-23T10:00:22.270Z,1009.69
2017-05-23T10:01:22.265Z,1009.71
2017-05-23T10:02:22.260Z,1009.65
2017-05-23T10:03:22.260Z,1009.79
2017-05-23T10:04:22.262Z,1009.82
2017-05-23T10:05:22.250Z,1009.78
2017-05-23T10:06:22.250Z,1009.73
2017-05-23T10:07:22.244Z,1009.72
2017-05-23T10:08:22.237Z,1009.71
2017-05-23T10:09:22.231Z,1009.64
2017-05-23T10:10:22.233Z,1009.73
2017-05-23T10:11:22.222Z,1009.73
2017-05-23T10:12:22.221Z,1009.74
2017-05-23T10:13:22.222Z,1009.73
2017-05-23T10:14:22.223Z,1009.71
2017-05-23T10:15:22.202Z,1009.68
2017-05-23T10:16:22.199Z,1009.63
2017-05-23T10:17:22.190Z,1009.65
2017-05-23T10:18:22.191Z,1009.69
2017-05-23T10:19:22.183Z,1009.66
2017-05-23T10:20:22.180Z,1009.8
2017-05-23T10:21:22.170Z,1009.68
2017-05-23T10:22:22.167Z,1009.69
2017-05-23T10:23:22.160Z,1009.65
2017-05-23T10:24:22.152Z,1009.63
2017-05-23T10:25:22.151Z,1009.6
2017-05-23T10:26:22.150Z,1009.67
2017-05-23T10:27:22.140Z,1009.75
2017-05-23T10:28:22.130Z,1009.75
2017-05-23T10:29:22.135Z,1009.72
2017-05-23T10:30:22.120Z,1009.76
2017-05-23T10:31:22.111Z,1009.58
2017-05-23T10:32:22.110Z,1009.61
2017-05-23T10:33:22.099Z,1009.67
2017-05-23T10:34:22.102Z,1009.66
2017-05-23T10:35:22.087Z,1009.71
2017-05-23T10:36:22.081Z,1009.79
2017-05-23T10:37:22.080Z,1009.73
2017-05-23T10:38:22.070Z,1009.64
2017-05-23T10:39:22.061Z,1009.66
2017-05-23T10:40:22.061Z,1009.69
2017-05-23T10:41:22.054Z,1009.64
2017-05-23T10:42:22.050Z,1009.63
2017-05-23T10:43:22.043Z,1009.65
2017-05-23T10:44:22.029Z,1009.62
2017-05-23T10:45:22.023Z,1009.64
2017-05-23T10:46:22.018Z,1009.76
2017-05-23T10:47:22.012Z,1009.76
2017-05-23T10:48:21.999Z,1009.69
2017-05-23T10:49:21.995Z,1009.71
2017-05-23T10:50:21.986Z,1009.69
2017-05-23T10:51:21.981Z,1009.71
2017-05-23T10:52:21.971Z,1009.71
2017-05-23T10:53:21.966Z,1009.67
2017-05-23T10:54:21.960Z,1009.75
2017-05-23T10:55:21.949Z,1009.73
2017-05-23T10:56:21.948Z,1009.75
2017-05-23T10:57:21.938Z,1009.79
2017-05-23T10:58:21.932Z,1009.76
2017-05-23T10:59:21.919Z,1009.81
2017-05-23T11:00:21.916Z,1009.7
2017-05-23T11:01:21.914Z,1009.8
2017-05-23T11:02:21.901Z,1009.81
2017-05-23T11:03:21.893Z,1009.84
2017-05-23T11:04:21.887Z,1009.82
2017-05-23T11:05:21.974Z,1009.9
2017-05-23T11:06:21.873Z,1009.82
2017-05-23T11:07:21.870Z,1009.83
2017-05-23T11:08:21.860Z,1009.87
2017-05-23T11:09:21.878Z,1009.85
2017-05-23T11:10:21.849Z,1009.88
2017-05-23T11:11:21.841Z,1009.89
2017-05-23T11:12:21.834Z,1009.86
2017-05-23T11:13:21.870Z,1009.88
2017-05-23T11:14:21.818Z,1009.89
2017-05-23T11:15:21.812Z,1009.94
2017-05-23T11:16:21.801Z,1009.97
2017-05-23T11:17:21.904Z,1009.91
2017-05-23T11:18:21.789Z,1009.88
2017-05-23T11:19:21.787Z,1009.88
2017-05-23T11:20:21.772Z,1009.86
2017-05-23T11:21:21.770Z,1009.9
2017-05-23T11:22:21.760Z,1009.94
2017-05-23T11:23:21.762Z,1009.92
2017-05-23T11:24:21.750Z,1009.84
2017-05-23T11:25:21.744Z,1009.85
2017-05-23T11:26:21.736Z,1009.82
2017-05-23T11:27:21.728Z,1009.86
2017-05-23T11:28:21.727Z,1009.93
2017-05-23T11:29:21.724Z,1009.88
2017-05-23T11:30:21.712Z,1009.86
2017-05-23T11:31:21.703Z,1009.9
2017-05-23T11:32:21.690Z,1009.87
2017-05-23T11:33:21.690Z,1010.01
2017-05-23T11:34:21.683Z,1010
2017-05-23T11:35:21.674Z,1009.92
2017-05-23T11:36:21.663Z,1009.93
2017-05-23T11:37:21.661Z,1010.07
2017-05-23T11:38:21.653Z,1010.02
2017-05-23T11:39:21.652Z,1009.98
2017-05-23T11:40:21.638Z,1009.93
2017-05-23T11:41:21.635Z,1010
2017-05-23T11:42:21.620Z,1009.95
2017-05-23T11:43:21.614Z,1009.95
2017-05-23T11:44:21.620Z,1010.01
2017-05-23T11:45:21.599Z,1010.01
2017-05-23T11:46:21.590Z,1010.05
2017-05-23T11:47:21.590Z,1010.03
2017-05-23T11:48:21.582Z,1010.06
2017-05-23T11:49:21.569Z,1010.16
2017-05-23T11:50:21.562Z,1010.11
2017-05-23T11:51:21.562Z,1010.09
2017-05-23T11:52:21.647Z,1010.1
2017-05-23T11:53:21.539Z,1010.15
2017-05-23T11:54:21.530Z,1010.09
2017-05-23T11:55:21.529Z,1010.08
2017-05-23T11:56:21.569Z,1010.06
2017-05-23T11:57:21.514Z,1010.09
2017-05-23T11:58:21.556Z,1010.11
2017-05-23T11:59:21.496Z,1010.1
2017-05-23T12:00:21.490Z,1010.23
2017-05-23T12:01:21.489Z,1010.19
2017-05-23T12:02:21.494Z,1010.11
2017-05-23T12:03:21.471Z,1010.16
2017-05-23T12:04:21.461Z,1010.18
2017-05-23T12:05:21.458Z,1010.18
2017-05-23T12:06:21.450Z,1010.17
2017-05-23T12:07:21.439Z,1010.11
2017-05-23T12:08:21.437Z,1010.08